sensor_id;sensor_type;location;lat;lon;timestamp;pressure;altitude;pressure_sealevel;temperature;humidity
46876;BME280;32866;50.160;14.768;2022-11-02T00:00:38;99919.19;;;7.05;100.00
46876;BME280;32866;50.160;14.768;2022-11-02T00:03:04;99890.56;;;6.79;100.00
46876;BME280;32866;50.160;14.768;2022-11-02T00:05:31;99926.25;;;6.99;100.00
46876;BME280;32866;50.160;14.768;2022-11-02T00:07:57;99916.88;;;7.00;100.00
46876;BME280;32866;50.160;14.768;2022-11-02T00:10:23;99918.38;;;7.09;100.00
46876;BME280;32866;50.160;14.768;2022-11-02T00:12:49;99911.38;;;7.08;100.00
46876;BME280;32866;50.160;14.768;2022-11-02T00:15:15;99913.75;;;7.05;100.00
46876;BME280;32866;50.160;14.768;2022-11-02T00:17:43;99906.78;;;6.97;100.00
46876;BME280;32866;50.160;14.768;2022-11-02T00:20:11;99925.66;;;7.26;100.00
46876;BME280;32866;50.160;14.768;2022-11-02T00:22:38;99884.22;;;6.93;100.00
46876;BME280;32866;50.160;14.768;2022-11-02T00:25:05;99926.16;;;7.10;100.00
46876;BME280;32866;50.160;14.768;2022-11-02T00:27:32;99916.50;;;6.98;100.00
46876;BME280;32866;50.160;14.768;2022-11-02T00:29:58;99937.72;;;7.25;100.00
46876;BME280;32866;50.160;14.768;2022-11-02T00:32:24;99936.19;;;7.20;100.00
46876;BME280;32866;50.160;14.768;2022-11-02T00:34:50;99909.16;;;6.92;100.00
46876;BME280;32866;50.160;14.768;2022-11-02T00:37:15;99943.63;;;7.16;100.00
46876;BME280;32866;50.160;14.768;2022-11-02T00:39:41;99901.00;;;6.88;100.00
46876;BME280;32866;50.160;14.768;2022-11-02T00:42:06;99937.03;;;7.10;100.00
46876;BME280;32866;50.160;14.768;2022-11-02T00:44:32;99927.84;;;6.90;100.00
46876;BME280;32866;50.160;14.768;2022-11-02T00:46:57;99950.66;;;7.10;100.00
46876;BME280;32866;50.160;14.768;2022-11-02T00:49:22;99931.00;;;6.84;100.00
46876;BME280;32866;50.160;14.768;2022-11-02T00:51:48;99930.25;;;6.84;100.00
46876;BME280;32866;50.160;14.768;2022-11-02T00:54:13;99910.78;;;6.82;100.00
46876;BME280;32866;50.160;14.768;2022-11-02T00:56:38;99914.28;;;6.82;100.00
46876;BME280;32866;50.160;14.768;2022-11-02T00:59:04;99932.06;;;7.01;100.00
46876;BME280;32866;50.160;14.768;2022-11-02T01:01:29;99953.06;;;7.04;100.00
46876;BME280;32866;50.160;14.768;2022-11-02T01:03:56;99931.72;;;6.96;100.00
46876;BME280;32866;50.160;14.768;2022-11-02T01:06:21;99935.31;;;6.78;100.00
46876;BME280;32866;50.160;14.768;2022-11-02T01:08:46;99914.72;;;6.70;100.00
46876;BME280;32866;50.160;14.768;2022-11-02T01:13:39;99939.50;;;6.97;100.00
46876;BME280;32866;50.160;14.768;2022-11-02T01:16:05;99950.38;;;7.01;100.00
46876;BME280;32866;50.160;14.768;2022-11-02T01:18:30;99948.78;;;7.03;100.00
46876;BME280;32866;50.160;14.768;2022-11-02T01:20:57;99941.81;;;6.99;100.00
46876;BME280;32866;50.160;14.768;2022-11-02T01:23:22;99950.38;;;6.94;100.00
46876;BME280;32866;50.160;14.768;2022-11-02T01:25:47;99958.16;;;6.95;100.00
46876;BME280;32866;50.160;14.768;2022-11-02T01:28:13;99958.22;;;6.88;100.00
46876;BME280;32866;50.160;14.768;2022-11-02T01:30:38;99951.94;;;6.95;100.00
46876;BME280;32866;50.160;14.768;2022-11-02T01:33:05;99947.25;;;7.02;100.00
46876;BME280;32866;50.160;14.768;2022-11-02T01:35:30;99934.50;;;6.85;100.00
46876;BME280;32866;50.160;14.768;2022-11-02T01:37:55;99949.59;;;6.97;100.00
46876;BME280;32866;50.160;14.768;2022-11-02T01:40:21;99929.88;;;6.75;100.00
46876;BME280;32866;50.160;14.768;2022-11-02T01:42:46;99942.63;;;6.88;100.00
46876;BME280;32866;50.160;14.768;2022-11-02T01:45:12;99905.78;;;6.69;100.00
46876;BME280;32866;50.160;14.768;2022-11-02T01:47:39;99945.69;;;7.01;100.00
46876;BME280;32866;50.160;14.768;2022-11-02T01:50:10;99964.03;;;6.90;100.00
46876;BME280;32866;50.160;14.768;2022-11-02T01:52:37;99936.78;;;6.97;100.00
46876;BME280;32866;50.160;14.768;2022-11-02T01:55:09;99937.50;;;7.01;100.00
46876;BME280;32866;50.160;14.768;2022-11-02T01:57:38;99939.50;;;6.97;100.00
46876;BME280;32866;50.160;14.768;2022-11-02T02:00:08;99934.78;;;7.01;100.00
46876;BME280;32866;50.160;14.768;2022-11-02T02:02:37;99933.16;;;7.11;100.00
46876;BME280;32866;50.160;14.768;2022-11-02T02:05:08;99947.25;;;7.02;100.00
46876;BME280;32866;50.160;14.768;2022-11-02T02:07:36;99945.72;;;6.94;100.00
46876;BME280;32866;50.160;14.768;2022-11-02T02:10:03;99941.81;;;6.95;100.00
46876;BME280;32866;50.160;14.768;2022-11-02T02:12:30;99944.13;;;7.04;100.00
46876;BME280;32866;50.160;14.768;2022-11-02T02:14:57;99938.66;;;7.00;100.00
46876;BME280;32866;50.160;14.768;2022-11-02T02:17:47;99921.28;;;6.80;100.00
46876;BME280;32866;50.160;14.768;2022-11-02T02:20:23;99935.63;;;6.91;100.00
46876;BME280;32866;50.160;14.768;2022-11-02T02:28:56;99943.78;;;6.95;100.00
46876;BME280;32866;50.160;14.768;2022-11-02T02:33:57;99942.59;;;6.99;100.00
46876;BME280;32866;50.160;14.768;2022-11-02T02:36:31;99948.41;;;7.01;100.00
46876;BME280;32866;50.160;14.768;2022-11-02T02:39:10;99924.81;;;6.77;100.00
46876;BME280;32866;50.160;14.768;2022-11-02T02:41:39;99945.03;;;6.83;100.00
46876;BME280;32866;50.160;14.768;2022-11-02T02:44:13;99941.88;;;6.88;100.00
46876;BME280;32866;50.160;14.768;2022-11-02T02:46:44;99936.38;;;6.95;100.00
46876;BME280;32866;50.160;14.768;2022-11-02T02:49:17;99932.53;;;6.89;100.00
46876;BME280;32866;50.160;14.768;2022-11-02T02:51:44;99944.16;;;6.97;100.00
46876;BME280;32866;50.160;14.768;2022-11-02T02:54:22;99938.31;;;6.95;100.00
46876;BME280;32866;50.160;14.768;2022-11-02T02:56:53;99931.03;;;6.81;100.00
46876;BME280;32866;50.160;14.768;2022-11-02T02:59:23;99938.06;;;6.75;100.00
46876;BME280;32866;50.160;14.768;2022-11-02T03:01:51;99939.66;;;6.72;100.00
46876;BME280;32866;50.160;14.768;2022-11-02T03:04:18;99912.53;;;6.50;100.00
46876;BME280;32866;50.160;14.768;2022-11-02T03:06:47;99938.84;;;6.79;100.00
46876;BME280;32866;50.160;14.768;2022-11-02T03:09:39;99945.06;;;6.76;100.00
46876;BME280;32866;50.160;14.768;2022-11-02T03:17:31;99943.25;;;6.51;100.00
46876;BME280;32866;50.160;14.768;2022-11-02T03:20:15;99926.50;;;6.56;100.00
46876;BME280;32866;50.160;14.768;2022-11-02T03:25:35;99946.75;;;6.48;100.00
46876;BME280;32866;50.160;14.768;2022-11-02T03:31:18;99943.69;;;6.39;100.00
46876;BME280;32866;50.160;14.768;2022-11-02T03:33:56;99914.91;;;6.41;100.00
46876;BME280;32866;50.160;14.768;2022-11-02T03:36:36;99970.03;;;6.60;100.00
46876;BME280;32866;50.160;14.768;2022-11-02T03:39:06;99935.59;;;6.24;100.00
46876;BME280;32866;50.160;14.768;2022-11-02T03:41:33;99963.47;;;6.57;100.00
46876;BME280;32866;50.160;14.768;2022-11-02T03:44:12;99943.31;;;6.33;100.00
46876;BME280;32866;50.160;14.768;2022-11-02T03:46:40;99927.03;;;6.22;100.00
46876;BME280;32866;50.160;14.768;2022-11-02T03:49:12;99965.47;;;6.39;100.00
46876;BME280;32866;50.160;14.768;2022-11-02T03:51:42;99966.22;;;6.43;100.00
46876;BME280;32866;50.160;14.768;2022-11-02T03:54:14;99970.47;;;6.51;100.00
46876;BME280;32866;50.160;14.768;2022-11-02T03:56:45;99965.50;;;6.31;100.00
46876;BME280;32866;50.160;14.768;2022-11-02T03:59:13;99959.63;;;6.37;100.00
46876;BME280;32866;50.160;14.768;2022-11-02T04:01:42;99965.09;;;6.33;100.00
46876;BME280;32866;50.160;14.768;2022-11-02T04:04:08;99972.50;;;6.29;100.00
46876;BME280;32866;50.160;14.768;2022-11-02T04:06:34;99977.81;;;6.61;100.00
46876;BME280;32866;50.160;14.768;2022-11-02T04:08:59;99974.78;;;6.45;100.00
46876;BME280;32866;50.160;14.768;2022-11-02T04:11:25;99950.03;;;6.07;100.00
46876;BME280;32866;50.160;14.768;2022-11-02T04:14:09;99990.00;;;6.24;100.00
46876;BME280;32866;50.160;14.768;2022-11-02T04:16:53;99991.59;;;6.25;100.00
46876;BME280;32866;50.160;14.768;2022-11-02T04:19:38;99969.06;;;6.03;100.00
46876;BME280;32866;50.160;14.768;2022-11-02T04:22:04;99998.53;;;6.41;100.00
46876;BME280;32866;50.160;14.768;2022-11-02T04:24:48;99993.47;;;6.43;100.00
46876;BME280;32866;50.160;14.768;2022-11-02T04:27:32;99993.13;;;6.26;100.00
46876;BME280;32866;50.160;14.768;2022-11-02T04:29:58;100002.47;;;6.25;100.00
46876;BME280;32866;50.160;14.768;2022-11-02T04:32:23;99960.94;;;5.78;100.00
46876;BME280;32866;50.160;14.768;2022-11-02T04:35:07;99999.00;;;5.89;100.00
46876;BME280;32866;50.160;14.768;2022-11-02T04:37:40;100006.78;;;5.87;100.00
46876;BME280;32866;50.160;14.768;2022-11-02T04:40:25;99997.47;;;5.84;100.00
46876;BME280;32866;50.160;14.768;2022-11-02T04:42:50;99963.69;;;5.64;100.00
46876;BME280;32866;50.160;14.768;2022-11-02T04:45:16;99989.69;;;5.79;100.00
46876;BME280;32866;50.160;14.768;2022-11-02T04:47:41;99978.81;;;5.65;100.00
46876;BME280;32866;50.160;14.768;2022-11-02T04:50:07;99999.03;;;5.85;100.00
46876;BME280;32866;50.160;14.768;2022-11-02T04:52:32;99955.91;;;5.58;100.00
46876;BME280;32866;50.160;14.768;2022-11-02T04:54:57;99992.00;;;5.84;100.00
46876;BME280;32866;50.160;14.768;2022-11-02T04:57:23;99959.00;;;5.64;100.00
46876;BME280;32866;50.160;14.768;2022-11-02T04:59:49;99966.03;;;5.47;100.00
46876;BME280;32866;50.160;14.768;2022-11-02T05:02:14;99988.16;;;5.64;100.00
46876;BME280;32866;50.160;14.768;2022-11-02T05:04:39;99986.97;;;5.79;100.00
46876;BME280;32866;50.160;14.768;2022-11-02T05:07:05;100002.91;;;5.84;100.00
46876;BME280;32866;50.160;14.768;2022-11-02T05:09:32;100007.19;;;5.85;100.00
46876;BME280;32866;50.160;14.768;2022-11-02T05:11:57;99998.25;;;5.78;100.00
46876;BME280;32866;50.160;14.768;2022-11-02T05:14:23;99984.63;;;5.78;100.00
46876;BME280;32866;50.160;14.768;2022-11-02T05:16:48;99983.88;;;5.70;100.00
46876;BME280;32866;50.160;14.768;2022-11-02T05:19:13;99996.66;;;5.91;100.00
46876;BME280;32866;50.160;14.768;2022-11-02T05:21:39;100001.34;;;5.98;100.00
46876;BME280;32866;50.160;14.768;2022-11-02T05:24:05;99979.56;;;6.05;100.00
46876;BME280;32866;50.160;14.768;2022-11-02T05:26:30;99971.81;;;5.89;100.00
46876;BME280;32866;50.160;14.768;2022-11-02T05:28:56;99981.13;;;5.88;100.00
46876;BME280;32866;50.160;14.768;2022-11-02T05:31:21;99937.22;;;5.82;100.00
46876;BME280;32866;50.160;14.768;2022-11-02T05:33:46;99975.72;;;5.99;100.00
46876;BME280;32866;50.160;14.768;2022-11-02T05:36:12;99964.84;;;5.70;100.00
46876;BME280;32866;50.160;14.768;2022-11-02T05:38:37;99967.97;;;5.68;100.00
46876;BME280;32866;50.160;14.768;2022-11-02T05:41:02;99971.81;;;5.71;100.00
46876;BME280;32866;50.160;14.768;2022-11-02T05:43:28;99985.81;;;5.73;100.00
46876;BME280;32866;50.160;14.768;2022-11-02T05:46:00;99976.50;;;5.52;100.00
46876;BME280;32866;50.160;14.768;2022-11-02T05:48:27;99991.25;;;5.76;100.00
46876;BME280;32866;50.160;14.768;2022-11-02T05:50:58;99998.66;;;5.58;100.00
46876;BME280;32866;50.160;14.768;2022-11-02T05:53:25;99992.06;;;5.48;100.00
46876;BME280;32866;50.160;14.768;2022-11-02T05:55:55;99986.59;;;5.23;100.00
46876;BME280;32866;50.160;14.768;2022-11-02T05:58:21;100008.72;;;5.22;100.00
46876;BME280;32866;50.160;14.768;2022-11-02T06:00:46;100009.88;;;5.06;100.00
46876;BME280;32866;50.160;14.768;2022-11-02T06:03:12;99991.63;;;5.14;100.00
46876;BME280;32866;50.160;14.768;2022-11-02T06:05:37;100000.53;;;5.14;100.00
46876;BME280;32866;50.160;14.768;2022-11-02T06:08:03;100001.34;;;5.11;100.00
46876;BME280;32866;50.160;14.768;2022-11-02T06:10:29;99990.44;;;5.08;100.00
46876;BME280;32866;50.160;14.768;2022-11-02T06:12:59;99995.53;;;5.16;100.00
46876;BME280;32866;50.160;14.768;2022-11-02T06:15:26;100000.19;;;5.19;100.00
46876;BME280;32866;50.160;14.768;2022-11-02T06:17:52;99997.81;;;5.11;100.00
46876;BME280;32866;50.160;14.768;2022-11-02T06:20:18;100007.56;;;5.33;100.00
46876;BME280;32866;50.160;14.768;2022-11-02T06:22:44;99953.53;;;4.78;100.00
46876;BME280;32866;50.160;14.768;2022-11-02T06:25:09;99970.59;;;4.71;100.00
46876;BME280;32866;50.160;14.768;2022-11-02T06:27:35;99992.00;;;5.05;100.00
46876;BME280;32866;50.160;14.768;2022-11-02T06:30:01;99974.13;;;4.90;100.00
46876;BME280;32866;50.160;14.768;2022-11-02T06:32:26;99970.22;;;4.83;100.00
46876;BME280;32866;50.160;14.768;2022-11-02T06:34:51;100002.09;;;5.05;100.00
46876;BME280;32866;50.160;14.768;2022-11-02T06:37:17;100014.53;;;5.31;100.00
46876;BME280;32866;50.160;14.768;2022-11-02T06:39:42;100010.28;;;5.44;100.00
46876;BME280;32866;50.160;14.768;2022-11-02T06:42:07;99988.56;;;5.30;100.00
46876;BME280;32866;50.160;14.768;2022-11-02T06:44:33;99992.03;;;5.34;100.00
46876;BME280;32866;50.160;14.768;2022-11-02T06:46:58;100022.31;;;5.65;100.00
46876;BME280;32866;50.160;14.768;2022-11-02T06:49:24;100024.69;;;5.73;100.00
46876;BME280;32866;50.160;14.768;2022-11-02T06:51:50;99998.25;;;5.56;100.00
46876;BME280;32866;50.160;14.768;2022-11-02T06:54:15;100023.09;;;5.94;100.00
46876;BME280;32866;50.160;14.768;2022-11-02T06:56:40;100030.13;;;5.99;100.00
46876;BME280;32866;50.160;14.768;2022-11-02T06:59:06;100037.91;;;5.97;100.00
46876;BME280;32866;50.160;14.768;2022-11-02T07:01:31;100018.44;;;5.84;100.00
46876;BME280;32866;50.160;14.768;2022-11-02T07:03:56;99997.84;;;5.93;100.00
46876;BME280;32866;50.160;14.768;2022-11-02T07:06:22;100027.75;;;6.22;100.00
46876;BME280;32866;50.160;14.768;2022-11-02T07:08:47;100030.09;;;6.20;100.00
46876;BME280;32866;50.160;14.768;2022-11-02T07:11:13;100037.81;;;6.40;100.00
46876;BME280;32866;50.160;14.768;2022-11-02T07:13:40;100037.81;;;6.32;100.00
46876;BME280;32866;50.160;14.768;2022-11-02T07:16:05;100041.69;;;6.46;100.00
46876;BME280;32866;50.160;14.768;2022-11-02T07:18:31;100004.03;;;6.19;100.00
46876;BME280;32866;50.160;14.768;2022-11-02T07:20:59;100042.41;;;6.64;100.00
46876;BME280;32866;50.160;14.768;2022-11-02T07:23:25;100049.00;;;6.71;100.00
46876;BME280;32866;50.160;14.768;2022-11-02T07:25:51;100041.56;;;6.78;100.00
46876;BME280;32866;50.160;14.768;2022-11-02T07:28:17;100049.28;;;6.87;100.00
46876;BME280;32866;50.160;14.768;2022-11-02T07:30:43;100045.28;;;7.10;100.00
46876;BME280;32866;50.160;14.768;2022-11-02T07:33:08;100032.84;;;7.05;100.00
46876;BME280;32866;50.160;14.768;2022-11-02T07:35:33;100037.44;;;7.22;100.00
46876;BME280;32866;50.160;14.768;2022-11-02T07:38:01;100054.03;;;7.46;100.00
46876;BME280;32866;50.160;14.768;2022-11-02T07:40:28;100029.69;;;7.14;100.00
46876;BME280;32866;50.160;14.768;2022-11-02T07:42:54;100042.44;;;7.31;100.00
46876;BME280;32866;50.160;14.768;2022-11-02T07:45:20;100055.19;;;7.45;100.00
46876;BME280;32866;50.160;14.768;2022-11-02T07:47:46;100054.31;;;7.63;100.00
46876;BME280;32866;50.160;14.768;2022-11-02T07:50:14;100048.19;;;7.48;100.00
46876;BME280;32866;50.160;14.768;2022-11-02T07:52:50;100046.53;;;7.61;100.00
46876;BME280;32866;50.160;14.768;2022-11-02T07:55:17;100051.81;;;7.83;100.00
46876;BME280;32866;50.160;14.768;2022-11-02T07:58:00;100041.88;;;8.03;100.00
46876;BME280;32866;50.160;14.768;2022-11-02T08:00:28;100049.28;;;8.41;100.00
46876;BME280;32866;50.160;14.768;2022-11-02T08:02:58;100057.41;;;9.13;100.00
46876;BME280;32866;50.160;14.768;2022-11-02T08:05:25;100040.03;;;9.54;100.00
46876;BME280;32866;50.160;14.768;2022-11-02T08:10:23;100072.50;;;10.67;100.00
46876;BME280;32866;50.160;14.768;2022-11-02T08:12:49;100084.16;;;10.91;100.00
46876;BME280;32866;50.160;14.768;2022-11-02T08:15:14;100044.34;;;10.66;100.00
46876;BME280;32866;50.160;14.768;2022-11-02T08:17:40;100061.63;;;10.43;100.00
46876;BME280;32866;50.160;14.768;2022-11-02T08:20:06;100067.31;;;10.52;100.00
46876;BME280;32866;50.160;14.768;2022-11-02T08:22:36;100061.69;;;10.39;100.00
46876;BME280;32866;50.160;14.768;2022-11-02T08:25:01;100079.06;;;10.29;100.00
46876;BME280;32866;50.160;14.768;2022-11-02T08:27:27;100045.16;;;9.99;100.00
46876;BME280;32866;50.160;14.768;2022-11-02T08:29:52;100051.09;;;10.18;100.00
46876;BME280;32866;50.160;14.768;2022-11-02T08:32:18;100051.91;;;10.15;100.00
46876;BME280;32866;50.160;14.768;2022-11-02T08:34:43;100043.81;;;10.31;100.00
46876;BME280;32866;50.160;14.768;2022-11-02T08:39:43;100045.03;;;10.50;100.00
46876;BME280;32866;50.160;14.768;2022-11-02T08:42:09;100038.75;;;10.90;100.00
46876;BME280;32866;50.160;14.768;2022-11-02T08:44:34;100041.44;;;11.46;100.00
46876;BME280;32866;50.160;14.768;2022-11-02T08:47:00;100036.00;;;11.76;100.00
46876;BME280;32866;50.160;14.768;2022-11-02T08:49:25;100067.75;;;12.10;100.00
46876;BME280;32866;50.160;14.768;2022-11-02T08:51:50;100044.38;;;12.18;100.00
46876;BME280;32866;50.160;14.768;2022-11-02T08:54:16;100050.91;;;12.24;100.00
46876;BME280;32866;50.160;14.768;2022-11-02T08:56:41;100025.59;;;12.16;100.00
46876;BME280;32866;50.160;14.768;2022-11-02T08:59:07;100050.03;;;12.27;100.00
46876;BME280;32866;50.160;14.768;2022-11-02T09:01:32;100068.50;;;12.56;100.00
46876;BME280;32866;50.160;14.768;2022-11-02T09:03:58;100065.44;;;12.67;100.00
46876;BME280;32866;50.160;14.768;2022-11-02T09:06:23;100038.22;;;12.43;100.00
46876;BME280;32866;50.160;14.768;2022-11-02T09:08:49;100063.91;;;12.66;100.00
46876;BME280;32866;50.160;14.768;2022-11-02T09:11:14;100067.16;;;12.77;100.00
46876;BME280;32866;50.160;14.768;2022-11-02T09:13:40;100060.53;;;12.74;100.00
46876;BME280;32866;50.160;14.768;2022-11-02T09:16:06;100076.75;;;12.98;100.00
46876;BME280;32866;50.160;14.768;2022-11-02T09:18:31;100079.06;;;12.99;100.00
46876;BME280;32866;50.160;14.768;2022-11-02T09:21:00;100075.22;;;13.10;100.00
46876;BME280;32866;50.160;14.768;2022-11-02T09:23:26;100079.25;;;13.34;100.00
46876;BME280;32866;50.160;14.768;2022-11-02T09:25:51;100055.75;;;13.17;100.00
46876;BME280;32866;50.160;14.768;2022-11-02T09:28:16;100079.75;;;13.81;100.00
46876;BME280;32866;50.160;14.768;2022-11-02T09:30:42;100080.44;;;14.20;100.00
46876;BME280;32866;50.160;14.768;2022-11-02T09:33:07;100074.97;;;13.94;100.00
46876;BME280;32866;50.160;14.768;2022-11-02T09:35:35;100080.41;;;13.98;100.00
46876;BME280;32866;50.160;14.768;2022-11-02T09:38:01;100061.31;;;13.90;100.00
46876;BME280;32866;50.160;14.768;2022-11-02T09:40:38;100083.03;;;14.36;100.00
46876;BME280;32866;50.160;14.768;2022-11-02T09:45:45;100060.88;;;14.27;100.00
46876;BME280;32866;50.160;14.768;2022-11-02T09:48:18;100089.34;;;14.24;100.00
46876;BME280;32866;50.160;14.768;2022-11-02T09:51:37;100085.66;;;14.05;100.00
46876;BME280;32866;50.160;14.768;2022-11-02T09:56:31;100097.81;;;13.69;100.00
46876;BME280;32866;50.160;14.768;2022-11-02T09:59:24;100092.66;;;13.45;100.00
46876;BME280;32866;50.160;14.768;2022-11-02T10:04:54;100083.06;;;13.76;100.00
46876;BME280;32866;50.160;14.768;2022-11-02T10:07:40;100083.94;;;14.20;100.00
46876;BME280;32866;50.160;14.768;2022-11-02T10:10:14;100086.78;;;14.64;100.00
46876;BME280;32866;50.160;14.768;2022-11-02T10:13:02;100076.59;;;15.06;100.00
46876;BME280;32866;50.160;14.768;2022-11-02T10:15:38;100059.53;;;14.67;100.00
46876;BME280;32866;50.160;14.768;2022-11-02T10:18:09;100076.69;;;14.93;100.00
46876;BME280;32866;50.160;14.768;2022-11-02T10:20:44;100081.38;;;15.05;100.00
46876;BME280;32866;50.160;14.768;2022-11-02T10:23:28;100075.75;;;15.18;100.00
46876;BME280;32866;50.160;14.768;2022-11-02T10:25:54;100074.50;;;14.88;100.00
46876;BME280;32866;50.160;14.768;2022-11-02T10:28:24;100075.19;;;15.32;100.00
46876;BME280;32866;50.160;14.768;2022-11-02T10:30:51;100052.34;;;15.32;100.00
46876;BME280;32866;50.160;14.768;2022-11-02T10:33:24;100072.72;;;15.66;100.00
46876;BME280;32866;50.160;14.768;2022-11-02T10:36:12;100068.88;;;15.72;100.00
46876;BME280;32866;50.160;14.768;2022-11-02T10:38:58;100066.94;;;15.82;100.00
46876;BME280;32866;50.160;14.768;2022-11-02T10:47:26;100059.88;;;15.81;100.00
46876;BME280;32866;50.160;14.768;2022-11-02T10:50:14;100058.19;;;15.84;100.00
46876;BME280;32866;50.160;14.768;2022-11-02T10:52:44;100059.34;;;15.73;100.00
46876;BME280;32866;50.160;14.768;2022-11-02T10:55:28;100032.53;;;15.24;100.00
46876;BME280;32866;50.160;14.768;2022-11-02T10:57:57;100060.56;;;15.13;100.00
46876;BME280;32866;50.160;14.768;2022-11-02T11:00:25;100058.25;;;14.90;100.00
46876;BME280;32866;50.160;14.768;2022-11-02T11:03:10;100060.22;;;15.11;100.00
46876;BME280;32866;50.160;14.768;2022-11-02T11:05:58;100048.94;;;14.96;100.00
46876;BME280;32866;50.160;14.768;2022-11-02T11:11:12;100046.28;;;15.15;100.00
46876;BME280;32866;50.160;14.768;2022-11-02T11:13:40;100051.47;;;15.53;100.00
46876;BME280;32866;50.160;14.768;2022-11-02T11:16:06;100052.75;;;15.71;100.00
46876;BME280;32866;50.160;14.768;2022-11-02T11:18:32;100046.53;;;15.98;100.00
46876;BME280;32866;50.160;14.768;2022-11-02T11:20:57;100051.91;;;15.43;100.00
46876;BME280;32866;50.160;14.768;2022-11-02T11:23:24;100056.19;;;15.34;100.00
46876;BME280;32866;50.160;14.768;2022-11-02T11:26:04;100035.16;;;14.96;100.00
46876;BME280;32866;50.160;14.768;2022-11-02T11:31:09;100046.88;;;14.56;100.00
46876;BME280;32866;50.160;14.768;2022-11-02T11:33:52;100024.22;;;14.39;100.00
46876;BME280;32866;50.160;14.768;2022-11-02T11:36:22;100036.03;;;14.40;100.00
46876;BME280;32866;50.160;14.768;2022-11-02T11:38:49;100043.66;;;14.36;100.00
46876;BME280;32866;50.160;14.768;2022-11-02T11:41:15;100049.69;;;14.43;100.00
46876;BME280;32866;50.160;14.768;2022-11-02T11:43:41;100038.66;;;14.43;100.00
46876;BME280;32866;50.160;14.768;2022-11-02T11:46:07;100006.91;;;14.17;100.00
46876;BME280;32866;50.160;14.768;2022-11-02T11:48:40;100035.91;;;14.43;100.00
46876;BME280;32866;50.160;14.768;2022-11-02T11:51:38;100027.69;;;14.31;100.00
46876;BME280;32866;50.160;14.768;2022-11-02T11:54:28;99997.03;;;14.06;100.00
46876;BME280;32866;50.160;14.768;2022-11-02T11:56:56;100031.84;;;14.35;100.00
46876;BME280;32866;50.160;14.768;2022-11-02T12:02:21;100025.50;;;14.47;100.00
46876;BME280;32866;50.160;14.768;2022-11-02T12:04:47;100032.25;;;14.69;100.00
46876;BME280;32866;50.160;14.768;2022-11-02T12:07:36;100020.41;;;14.59;100.00
46876;BME280;32866;50.160;14.768;2022-11-02T12:21:19;100025.25;;;14.33;100.00
46876;BME280;32866;50.160;14.768;2022-11-02T12:29:40;100015.31;;;14.35;100.00
46876;BME280;32866;50.160;14.768;2022-11-02T12:35:34;100019.84;;;14.29;100.00
46876;BME280;32866;50.160;14.768;2022-11-02T12:41:08;99995.50;;;14.27;100.00
46876;BME280;32866;50.160;14.768;2022-11-02T12:43:39;100015.13;;;14.52;100.00
46876;BME280;32866;50.160;14.768;2022-11-02T12:51:41;100006.13;;;14.82;100.00
46876;BME280;32866;50.160;14.768;2022-11-02T12:54:19;100000.66;;;14.92;100.00
46876;BME280;32866;50.160;14.768;2022-11-02T12:56:46;100006.31;;;14.88;100.00
46876;BME280;32866;50.160;14.768;2022-11-02T12:59:18;100004.03;;;14.96;100.00
46876;BME280;32866;50.160;14.768;2022-11-02T13:01:46;99992.88;;;14.99;100.00
46876;BME280;32866;50.160;14.768;2022-11-02T13:04:19;100000.75;;;15.10;100.00
46876;BME280;32866;50.160;14.768;2022-11-02T13:06:55;100008.06;;;15.04;100.00
46876;BME280;32866;50.160;14.768;2022-11-02T13:09:31;100007.97;;;14.86;100.00
46876;BME280;32866;50.160;14.768;2022-11-02T13:12:05;100007.03;;;14.79;100.00
46876;BME280;32866;50.160;14.768;2022-11-02T13:14:38;99973.53;;;14.59;100.00
46876;BME280;32866;50.160;14.768;2022-11-02T13:17:11;100004.63;;;14.91;100.00
46876;BME280;32866;50.160;14.768;2022-11-02T13:19:55;99993.34;;;14.67;100.00
46876;BME280;32866;50.160;14.768;2022-11-02T13:22:31;100004.50;;;14.63;100.00
46876;BME280;32866;50.160;14.768;2022-11-02T13:25:20;100009.09;;;14.66;100.00
46876;BME280;32866;50.160;14.768;2022-11-02T13:28:44;100004.72;;;14.56;100.00
46876;BME280;32866;50.160;14.768;2022-11-02T13:30:44;99989.03;;;14.65;100.00
46876;BME280;32866;50.160;14.768;2022-11-02T13:33:19;100009.44;;;14.68;100.00
46876;BME280;32866;50.160;14.768;2022-11-02T13:35:45;99989.22;;;14.49;100.00
46876;BME280;32866;50.160;14.768;2022-11-02T13:40:40;99989.34;;;14.45;100.00
46876;BME280;32866;50.160;14.768;2022-11-02T13:46:23;100014.69;;;14.53;100.00
46876;BME280;32866;50.160;14.768;2022-11-02T13:48:58;100013.31;;;14.36;100.00
46876;BME280;32866;50.160;14.768;2022-11-02T13:54:09;100019.81;;;14.20;100.00
46876;BME280;32866;50.160;14.768;2022-11-02T13:56:36;100009.84;;;14.22;100.00
46876;BME280;32866;50.160;14.768;2022-11-02T13:59:05;100018.28;;;14.06;100.00
46876;BME280;32866;50.160;14.768;2022-11-02T14:01:34;100022.34;;;14.14;100.00
46876;BME280;32866;50.160;14.768;2022-11-02T14:04:05;100013.03;;;13.99;100.00
46876;BME280;32866;50.160;14.768;2022-11-02T14:06:41;100027.66;;;14.08;100.00
46876;BME280;32866;50.160;14.768;2022-11-02T14:09:08;100032.28;;;14.12;100.00
46876;BME280;32866;50.160;14.768;2022-11-02T14:14:38;100021.00;;;13.84;100.00
46876;BME280;32866;50.160;14.768;2022-11-02T14:17:13;100031.13;;;14.00;100.00
46876;BME280;32866;50.160;14.768;2022-11-02T14:22:13;100027.63;;;13.86;100.00
46876;BME280;32866;50.160;14.768;2022-11-02T14:29:48;100030.66;;;13.66;100.00